Commack, New York
Current Conditions -  °F | °C
As of 1:53 PM on Saturday 25 Oct 2014 (Local Time) from KFRG Reporting Station
Clear Clear  
Wind Chill: 65°   Ceiling: Unl
Heat Index: 65°   Visibility: 10mi
Dew Point: 43°   Wind: 9mph
Humidity: 45%   Direction: 280°W
Pressure: 29.73"   Gusts: 18mph
Location:  40.85°N, 73.29°W
Report Text: KFRG 251753Z 28008G16KT 10SM CLR 18/06 A2973 RMK AO2 SLP067 T01830061 10183 20094 58034
Loading
Personal Weather Stations






























Interactive Weather Map
Tropical Storm Tracking
New forecast layout! Learn more

10-Day Weather Forecast

Advertisements
Track Severe Weather on mobile